Time;durP1;ratioP1;P1;durP2;ratioP2;P2;SDS_P1;SDS_P2;PMS_P1;PMS_P2;Temp;Humidity;BMP_temperature;BMP_pressure;BME280_temperature;BME280_humidity;BME280_pressure;Samples;Min_cycle;Max_cycle;Signal;HPM_P1;HPM_P2
2024/02/21 00:01:39;;;;;;;26.55;10.48;;;11.20;99.90;;;;;;5056421;28;20037;-76
2024/02/21 00:04:05;;;;;;;28.42;10.13;;;11.10;99.90;;;;;;5055384;28;20043;-76
2024/02/21 00:06:32;;;;;;;32.22;12.00;;;11.20;99.90;;;;;;5057157;28;20025;-77
2024/02/21 00:08:57;;;;;;;29.67;10.23;;;11.10;99.90;;;;;;5057962;28;20013;-76
2024/02/21 00:11:23;;;;;;;32.83;11.00;;;11.10;99.90;;;;;;5053798;28;20121;-76
2024/02/21 00:13:50;;;;;;;20.45;9.60;;;11.10;99.90;;;;;;5057091;28;20028;-76
2024/02/21 00:16:16;;;;;;;32.08;10.10;;;11.10;99.90;;;;;;5054679;28;20017;-74
2024/02/21 00:18:42;;;;;;;28.88;10.50;;;11.20;99.90;;;;;;5053917;28;20017;-77
2024/02/21 00:21:07;;;;;;;36.30;10.30;;;11.20;99.90;;;;;;5058662;28;20366;-76
2024/02/21 00:23:33;;;;;;;41.90;9.82;;;11.20;99.90;;;;;;5055109;28;20083;-76
2024/02/21 00:25:59;;;;;;;30.17;9.68;;;11.10;99.90;;;;;;5052793;28;20029;-76
2024/02/21 00:28:24;;;;;;;35.38;11.52;;;11.00;99.90;;;;;;5055707;28;20032;-77
2024/02/21 00:30:50;;;;;;;29.85;10.23;;;11.10;99.90;;;;;;5059134;28;20025;-77
2024/02/21 00:33:17;;;;;;;19.67;8.82;;;11.10;99.90;;;;;;5056697;28;20378;-77
2024/02/21 00:35:43;;;;;;;24.80;9.13;;;11.10;99.90;;;;;;5057041;28;20063;-76
2024/02/21 00:38:08;;;;;;;27.83;9.43;;;11.00;99.90;;;;;;5057688;28;20056;-76
2024/02/21 00:40:35;;;;;;;23.88;9.98;;;11.10;99.90;;;;;;5057843;28;20046;-77
2024/02/21 00:43:00;;;;;;;20.55;9.73;;;11.00;99.90;;;;;;5053502;28;20030;-77
2024/02/21 00:45:26;;;;;;;24.63;8.82;;;11.10;99.90;;;;;;5055975;28;20070;-76
2024/02/21 00:47:52;;;;;;;23.20;9.18;;;11.10;99.90;;;;;;5053941;28;20410;-74
2024/02/21 00:50:17;;;;;;;29.60;9.77;;;11.10;99.90;;;;;;5056692;28;20021;-76
2024/02/21 00:52:44;;;;;;;23.98;9.15;;;11.10;99.90;;;;;;5054467;28;20036;-77
2024/02/21 00:55:10;;;;;;;30.70;8.70;;;11.10;99.90;;;;;;5054103;28;20028;-76
2024/02/21 00:57:36;;;;;;;22.65;8.18;;;11.20;99.90;;;;;;5054336;28;20036;-77
2024/02/21 01:00:03;;;;;;;23.80;8.80;;;11.20;99.90;;;;;;5058837;28;20017;-77
2024/02/21 01:02:31;;;;;;;21.75;8.45;;;11.20;99.90;;;;;;5048334;28;20493;-76
2024/02/21 01:04:57;;;;;;;27.70;9.20;;;11.20;99.90;;;;;;5042313;28;20048;-74
2024/02/21 01:07:23;;;;;;;22.42;9.18;;;11.20;99.90;;;;;;5035179;28;20108;-76
2024/02/21 01:09:48;;;;;;;24.45;9.27;;;11.20;99.90;;;;;;5051234;28;20604;-76
2024/02/21 01:12:14;;;;;;;23.83;9.40;;;11.20;99.90;;;;;;5051673;28;20040;-76
2024/02/21 01:14:39;;;;;;;25.05;9.23;;;11.20;99.90;;;;;;5051766;28;20373;-76
2024/02/21 01:17:06;;;;;;;29.52;10.23;;;11.10;99.90;;;;;;5051274;28;20047;-77
2024/02/21 01:19:31;;;;;;;23.77;9.25;;;11.10;99.90;;;;;;5049779;28;20032;-75
2024/02/21 01:21:57;;;;;;;27.58;9.35;;;11.10;99.90;;;;;;5050935;28;20033;-75
2024/02/21 01:24:24;;;;;;;23.77;9.50;;;11.10;99.90;;;;;;5051735;28;20036;-76
2024/02/21 01:26:49;;;;;;;28.38;9.18;;;11.00;99.90;;;;;;5049619;28;20025;-76
2024/02/21 01:29:15;;;;;;;30.25;9.55;;;11.00;99.90;;;;;;5041218;28;20025;-76
2024/02/21 01:31:40;;;;;;;28.50;9.80;;;11.10;99.90;;;;;;5051198;28;20061;-76
2024/02/21 01:34:06;;;;;;;28.83;10.90;;;11.10;99.90;;;;;;5050607;28;20516;-76
2024/02/21 01:36:32;;;;;;;24.23;9.88;;;11.00;99.90;;;;;;5051025;28;20037;-77
2024/02/21 01:38:58;;;;;;;21.58;9.45;;;11.10;99.90;;;;;;5050884;28;20425;-76
2024/02/21 01:41:24;;;;;;;19.75;8.98;;;10.90;99.90;;;;;;5049616;28;20103;-76
2024/02/21 01:43:50;;;;;;;23.38;10.73;;;11.00;99.90;;;;;;5039222;28;20035;-76
2024/02/21 01:46:15;;;;;;;25.52;10.02;;;11.00;99.90;;;;;;5051387;28;20025;-76
2024/02/21 01:48:41;;;;;;;22.85;9.50;;;11.00;99.90;;;;;;5051321;28;20082;-77
2024/02/21 01:51:07;;;;;;;25.95;11.32;;;11.00;99.90;;;;;;5050934;28;20392;-76
2024/02/21 01:53:37;;;;;;;27.80;11.32;;;11.00;99.90;;;;;;5038328;28;20108;-76
2024/02/21 01:56:05;;;;;;;23.08;10.40;;;10.90;99.90;;;;;;5031577;28;20044;-76
2024/02/21 01:58:33;;;;;;;20.88;8.98;;;11.00;99.90;;;;;;5042414;28;20024;-72
2024/02/21 02:00:59;;;;;;;25.40;10.27;;;11.00;99.90;;;;;;5051305;28;20025;-76
2024/02/21 02:03:26;;;;;;;26.98;10.43;;;10.90;99.90;;;;;;5051040;28;20098;-76
2024/02/21 02:05:52;;;;;;;21.38;10.30;;;10.90;99.90;;;;;;5031632;28;20064;-76
2024/02/21 02:08:19;;;;;;;24.40;9.65;;;10.90;99.90;;;;;;5044367;28;20442;-76
2024/02/21 02:10:45;;;;;;;28.00;9.85;;;10.90;99.90;;;;;;5040861;28;20021;-76
2024/02/21 02:13:12;;;;;;;20.38;10.02;;;10.90;99.90;;;;;;5053242;28;20477;-76
2024/02/21 02:15:45;;;;;;;27.50;10.55;;;11.00;99.90;;;;;;5054806;28;20050;-76
2024/02/21 02:18:12;;;;;;;27.27;11.18;;;10.90;99.90;;;;;;5053459;28;20035;-76
2024/02/21 02:20:38;;;;;;;26.45;10.15;;;10.90;99.90;;;;;;5042231;28;20056;-76
2024/02/21 02:23:31;;;;;;;21.63;10.18;;;11.00;99.90;;;;;;5054563;28;20101;-76
2024/02/21 02:25:57;;;;;;;20.33;10.13;;;11.00;99.90;;;;;;5048008;28;20106;-78
2024/02/21 02:28:23;;;;;;;19.85;9.73;;;10.90;99.90;;;;;;5047762;28;20021;-76
2024/02/21 02:30:49;;;;;;;26.85;11.70;;;10.90;99.90;;;;;;5052858;28;20104;-76
2024/02/21 02:33:17;;;;;;;32.20;12.65;;;10.90;99.90;;;;;;5054023;28;20534;-76
2024/02/21 02:35:43;;;;;;;30.80;11.68;;;10.90;99.90;;;;;;5053690;28;20151;-76
2024/02/21 02:38:09;;;;;;;26.38;12.27;;;10.90;99.90;;;;;;5054030;28;20067;-76
2024/02/21 02:40:35;;;;;;;31.17;12.98;;;10.80;99.90;;;;;;5054230;28;20018;-74
2024/02/21 02:43:01;;;;;;;25.05;12.00;;;10.90;99.90;;;;;;5053845;28;20108;-76
2024/02/21 02:45:27;;;;;;;28.88;12.65;;;10.90;99.90;;;;;;5054038;28;20024;-76
2024/02/21 02:47:54;;;;;;;30.75;13.32;;;10.90;99.90;;;;;;5053579;28;20025;-76
2024/02/21 02:50:20;;;;;;;28.23;13.52;;;10.90;99.90;;;;;;5042643;28;20025;-76
2024/02/21 02:52:46;;;;;;;29.27;12.60;;;10.90;99.90;;;;;;5033980;28;20026;-76
2024/02/21 02:55:11;;;;;;;23.67;12.00;;;10.90;99.90;;;;;;5034212;28;20044;-76
2024/02/21 02:57:37;;;;;;;25.52;11.85;;;10.90;99.90;;;;;;5038573;28;20036;-75
2024/02/21 03:00:04;;;;;;;31.05;12.27;;;11.00;99.90;;;;;;5053970;28;20021;-76
2024/02/21 03:02:31;;;;;;;29.58;12.30;;;10.90;99.90;;;;;;5053326;28;20144;-76
2024/02/21 03:04:57;;;;;;;26.38;12.57;;;10.90;99.90;;;;;;5053526;28;20032;-75
2024/02/21 03:07:25;;;;;;;29.85;11.73;;;10.90;99.90;;;;;;5052865;28;20013;-76
2024/02/21 03:09:51;;;;;;;27.75;12.50;;;10.90;99.90;;;;;;5053312;28;20021;-76
2024/02/21 03:12:24;;;;;;;28.58;11.43;;;10.90;99.90;;;;;;5053057;28;20444;-76
2024/02/21 03:14:50;;;;;;;26.90;12.48;;;11.00;99.90;;;;;;5052244;28;20474;-76
2024/02/21 03:17:16;;;;;;;26.58;10.88;;;11.00;99.90;;;;;;5046645;28;20034;-76
2024/02/21 03:19:41;;;;;;;17.27;10.10;;;11.00;99.90;;;;;;5046078;28;20025;-74
2024/02/21 03:22:07;;;;;;;26.13;10.73;;;11.00;99.90;;;;;;5052571;28;20036;-77
2024/02/21 03:24:33;;;;;;;26.20;10.57;;;11.00;99.90;;;;;;5053491;28;20536;-76
2024/02/21 03:26:59;;;;;;;24.33;10.75;;;10.90;99.90;;;;;;5053307;28;20020;-77
2024/02/21 03:29:25;;;;;;;22.45;10.70;;;10.90;99.90;;;;;;5052818;28;20111;-76
2024/02/21 03:31:50;;;;;;;24.30;10.10;;;10.90;99.90;;;;;;5053382;28;20021;-76
2024/02/21 03:34:16;;;;;;;19.88;10.95;;;11.00;99.90;;;;;;5053586;28;20371;-77
2024/02/21 03:36:42;;;;;;;30.80;11.75;;;10.90;99.90;;;;;;5052515;28;20044;-74
2024/02/21 03:39:09;;;;;;;26.48;10.88;;;10.90;99.90;;;;;;5040734;28;20033;-76
2024/02/21 03:41:35;;;;;;;25.15;11.43;;;10.90;99.90;;;;;;5046564;28;20018;-76
2024/02/21 03:44:01;;;;;;;28.67;11.73;;;10.90;99.90;;;;;;5046252;28;20041;-76
2024/02/21 03:46:27;;;;;;;27.15;11.90;;;10.80;99.90;;;;;;5052707;28;20025;-76
2024/02/21 03:48:53;;;;;;;25.90;12.52;;;10.70;99.90;;;;;;5052492;28;20029;-76
2024/02/21 03:51:19;;;;;;;21.20;11.25;;;10.80;99.90;;;;;;5053036;28;20028;-75
2024/02/21 03:53:44;;;;;;;26.58;10.85;;;10.80;99.90;;;;;;5053357;28;20025;-76
2024/02/21 03:56:10;;;;;;;31.30;11.50;;;10.80;99.90;;;;;;5052684;28;20025;-76
2024/02/21 03:58:36;;;;;;;25.35;10.88;;;10.80;99.90;;;;;;5051780;28;20033;-76
2024/02/21 04:01:02;;;;;;;23.90;11.38;;;10.80;99.90;;;;;;5052868;28;20067;-76
2024/02/21 04:03:28;;;;;;;31.23;12.52;;;10.80;99.90;;;;;;5039299;28;20042;-76
2024/02/21 04:05:54;;;;;;;26.27;11.60;;;10.80;99.90;;;;;;5052348;28;20078;-75
2024/02/21 04:08:19;;;;;;;27.40;11.50;;;10.80;99.90;;;;;;5052808;28;20025;-76
2024/02/21 04:10:45;;;;;;;32.47;12.32;;;10.80;99.90;;;;;;5052861;28;20017;-76
2024/02/21 04:13:11;;;;;;;23.83;10.65;;;10.70;99.90;;;;;;5052560;28;20568;-75
2024/02/21 04:15:36;;;;;;;23.73;10.90;;;10.70;99.90;;;;;;5052883;28;20395;-76
2024/02/21 04:18:03;;;;;;;27.23;10.85;;;10.70;99.90;;;;;;5051433;28;20029;-76
2024/02/21 04:20:29;;;;;;;23.05;11.23;;;10.70;99.90;;;;;;5052732;28;20013;-76
2024/02/21 04:22:55;;;;;;;20.92;10.55;;;10.70;99.90;;;;;;5040117;28;20025;-75
2024/02/21 04:25:21;;;;;;;26.35;11.13;;;10.70;99.90;;;;;;5038368;28;20029;-76
2024/02/21 04:27:46;;;;;;;27.30;11.02;;;10.70;99.90;;;;;;5052349;28;20273;-76
2024/02/21 04:30:12;;;;;;;22.40;10.73;;;10.60;99.90;;;;;;5046100;28;20387;-76
2024/02/21 04:32:39;;;;;;;20.88;10.35;;;10.70;99.90;;;;;;5032176;28;20087;-76
2024/02/21 04:35:05;;;;;;;21.92;11.13;;;10.70;99.90;;;;;;5032593;28;20026;-76
2024/02/21 04:37:30;;;;;;;26.02;10.77;;;10.60;99.90;;;;;;5045775;28;20452;-76
2024/02/21 04:39:56;;;;;;;22.25;10.23;;;10.60;99.90;;;;;;5052073;28;20024;-75
2024/02/21 04:42:22;;;;;;;27.20;11.73;;;10.60;99.90;;;;;;5052051;28;20091;-75
2024/02/21 04:44:48;;;;;;;23.30;10.85;;;10.70;99.90;;;;;;5039288;28;20013;-76
2024/02/21 04:47:13;;;;;;;20.83;9.57;;;10.60;99.90;;;;;;5051313;28;20029;-76
2024/02/21 04:49:40;;;;;;;24.65;10.52;;;10.60;99.90;;;;;;5051214;28;20044;-76
2024/02/21 04:52:05;;;;;;;19.88;9.02;;;10.70;99.90;;;;;;5051440;28;20028;-76
2024/02/21 04:54:31;;;;;;;26.33;10.48;;;10.70;99.90;;;;;;5045364;28;20064;-76
2024/02/21 04:56:57;;;;;;;29.60;12.20;;;10.70;99.90;;;;;;5044884;28;20386;-75
2024/02/21 04:59:22;;;;;;;29.33;10.65;;;10.70;99.90;;;;;;5050430;28;20021;-76
2024/02/21 05:01:48;;;;;;;20.77;9.10;;;10.60;99.90;;;;;;5051634;28;20093;-76
2024/02/21 05:04:14;;;;;;;29.60;10.77;;;10.70;99.90;;;;;;5046105;28;20034;-76
2024/02/21 05:06:41;;;;;;;20.10;9.65;;;10.70;99.90;;;;;;5043957;28;20039;-76
2024/02/21 05:09:08;;;;;;;25.77;10.43;;;10.60;99.90;;;;;;5050620;28;20036;-76
2024/02/21 05:11:34;;;;;;;17.98;8.85;;;10.60;99.90;;;;;;5051710;28;20095;-76
2024/02/21 05:14:00;;;;;;;21.50;9.55;;;10.70;99.90;;;;;;5051741;28;20075;-77
2024/02/21 05:16:25;;;;;;;19.25;9.95;;;10.60;99.90;;;;;;5051662;28;20033;-76
2024/02/21 05:18:51;;;;;;;21.73;10.25;;;10.60;99.90;;;;;;5051722;28;20021;-76
2024/02/21 05:21:17;;;;;;;22.33;10.52;;;10.70;99.90;;;;;;5051911;28;20462;-75
2024/02/21 05:23:42;;;;;;;27.80;9.77;;;10.70;99.90;;;;;;5051475;28;20098;-76
2024/02/21 05:26:09;;;;;;;19.90;10.50;;;10.70;99.90;;;;;;5050833;28;20025;-76
2024/02/21 05:28:35;;;;;;;23.58;10.55;;;10.80;99.90;;;;;;5045823;28;20017;-76
2024/02/21 05:31:00;;;;;;;24.52;10.57;;;10.70;99.90;;;;;;5031898;28;20021;-76
2024/02/21 05:33:26;;;;;;;17.92;9.07;;;10.70;99.90;;;;;;5037078;28;20025;-77
2024/02/21 05:35:52;;;;;;;24.27;9.52;;;10.70;99.90;;;;;;5051255;28;20381;-76
2024/02/21 05:38:18;;;;;;;26.15;11.43;;;10.70;99.90;;;;;;5051179;28;20022;-77
2024/02/21 05:40:47;;;;;;;18.67;9.23;;;10.70;99.90;;;;;;5051676;28;20052;-76
2024/02/21 05:43:13;;;;;;;18.05;9.93;;;10.70;99.90;;;;;;5051502;28;20041;-76
2024/02/21 05:45:39;;;;;;;23.38;9.95;;;10.70;99.90;;;;;;5053256;28;20013;-76
2024/02/21 05:48:05;;;;;;;21.05;9.52;;;10.70;99.90;;;;;;5055217;28;20050;-76
2024/02/21 05:50:32;;;;;;;22.95;11.43;;;10.80;99.90;;;;;;5055290;28;20025;-76
2024/02/21 05:52:57;;;;;;;26.98;11.30;;;10.80;99.90;;;;;;5054522;28;20029;-76
2024/02/21 05:55:23;;;;;;;19.55;10.43;;;10.70;99.90;;;;;;5055574;28;20448;-76
2024/02/21 05:57:49;;;;;;;23.85;10.73;;;10.80;99.90;;;;;;5054752;28;20048;-76
2024/02/21 06:00:15;;;;;;;27.60;12.23;;;10.60;99.90;;;;;;5055216;28;20478;-75
2024/02/21 06:02:41;;;;;;;28.98;11.85;;;10.60;99.90;;;;;;5053425;28;20122;-76
2024/02/21 06:05:08;;;;;;;26.95;12.35;;;10.60;99.90;;;;;;5055455;28;20043;-76
2024/02/21 06:07:36;;;;;;;27.98;12.00;;;10.70;99.90;;;;;;5055150;28;20032;-77
2024/02/21 06:10:02;;;;;;;26.02;11.48;;;10.70;99.90;;;;;;5055157;28;20048;-75
2024/02/21 06:12:28;;;;;;;23.85;12.73;;;10.60;99.90;;;;;;5041144;28;20082;-76
2024/02/21 06:14:54;;;;;;;26.48;12.98;;;10.60;99.90;;;;;;5041485;28;20026;-76
2024/02/21 06:17:20;;;;;;;27.83;13.05;;;10.70;99.90;;;;;;5041386;28;20445;-75
2024/02/21 06:19:45;;;;;;;24.70;11.35;;;10.60;99.90;;;;;;5054154;28;20494;-75
2024/02/21 06:22:11;;;;;;;29.80;12.07;;;10.70;99.90;;;;;;5047223;28;20064;-76
2024/02/21 06:24:38;;;;;;;26.50;11.95;;;10.60;99.90;;;;;;5048310;28;20188;-76
2024/02/21 06:27:07;;;;;;;25.30;11.77;;;10.70;99.90;;;;;;5054746;28;20021;-75
2024/02/21 06:29:33;;;;;;;26.23;11.88;;;10.60;99.90;;;;;;5054678;28;20050;-75
2024/02/21 06:31:59;;;;;;;25.20;11.73;;;10.70;99.90;;;;;;5054794;28;20028;-71
2024/02/21 06:34:24;;;;;;;22.42;12.02;;;10.60;99.90;;;;;;5054462;28;20501;-77
2024/02/21 06:36:51;;;;;;;27.70;12.10;;;10.60;99.90;;;;;;5054587;28;20032;-72
2024/02/21 06:39:16;;;;;;;24.10;11.23;;;10.60;99.90;;;;;;5039846;28;20048;-75
2024/02/21 06:41:42;;;;;;;26.08;11.75;;;10.60;99.90;;;;;;5041554;28;20039;-70
2024/02/21 06:44:08;;;;;;;24.25;11.10;;;10.50;99.90;;;;;;5054770;28;20060;-76
2024/02/21 06:46:34;;;;;;;27.80;11.35;;;10.60;99.90;;;;;;5053533;28;20379;-74
2024/02/21 06:49:00;;;;;;;25.42;12.73;;;10.60;99.90;;;;;;5040896;28;20112;-76
2024/02/21 06:51:27;;;;;;;28.02;10.95;;;10.70;99.90;;;;;;5053817;28;20024;-76
2024/02/21 06:53:53;;;;;;;25.67;10.50;;;10.60;99.90;;;;;;5054151;28;20075;-76
2024/02/21 06:56:19;;;;;;;22.58;9.93;;;10.60;99.90;;;;;;5052696;28;20021;-76
2024/02/21 06:58:45;;;;;;;20.00;10.30;;;10.60;99.90;;;;;;5053991;28;20036;-75
2024/02/21 07:01:11;;;;;;;22.48;10.05;;;10.60;99.90;;;;;;5053753;28;20029;-74
2024/02/21 07:03:37;;;;;;;16.52;10.30;;;10.60;99.90;;;;;;5038888;28;20042;-75
2024/02/21 07:06:03;;;;;;;20.73;10.40;;;10.70;99.90;;;;;;5041390;28;20039;-75
2024/02/21 07:08:28;;;;;;;16.42;8.75;;;10.70;99.90;;;;;;5053683;28;20017;-75
2024/02/21 07:10:54;;;;;;;20.27;8.98;;;10.70;99.90;;;;;;5051214;28;20029;-76
2024/02/21 07:13:21;;;;;;;16.90;9.43;;;10.70;99.90;;;;;;5053465;28;20478;-76
2024/02/21 07:15:48;;;;;;;19.27;8.48;;;10.60;99.90;;;;;;5051977;28;20047;-76
2024/02/21 07:18:13;;;;;;;14.25;8.93;;;10.60;99.90;;;;;;5051366;28;20021;-76
2024/02/21 07:20:41;;;;;;;19.35;8.88;;;10.60;99.90;;;;;;5041017;28;20079;-75
2024/02/21 07:23:07;;;;;;;16.48;9.23;;;10.60;99.90;;;;;;5039089;28;20479;-76
2024/02/21 07:25:33;;;;;;;18.33;9.48;;;10.60;99.90;;;;;;5053423;28;20470;-74
2024/02/21 07:27:58;;;;;;;12.15;8.00;;;10.60;99.90;;;;;;5043764;28;20022;-76
2024/02/21 07:30:24;;;;;;;13.32;8.77;;;10.60;99.90;;;;;;5051915;28;20055;-76
2024/02/21 07:32:51;;;;;;;12.90;7.93;;;10.60;99.90;;;;;;5044437;28;20088;-76
2024/02/21 07:35:18;;;;;;;15.15;7.63;;;10.60;99.90;;;;;;5049312;28;20028;-77
2024/02/21 07:37:43;;;;;;;12.30;7.22;;;10.60;99.90;;;;;;5053355;28;20017;-77
2024/02/21 07:40:16;;;;;;;11.20;6.80;;;10.60;99.90;;;;;;5052083;28;20029;-76
2024/02/21 07:42:43;;;;;;;18.30;7.50;;;10.70;99.90;;;;;;5053221;28;20044;-76
2024/02/21 07:45:09;;;;;;;11.63;7.15;;;10.80;99.90;;;;;;5049487;28;20026;-77
2024/02/21 07:47:35;;;;;;;15.70;8.13;;;10.70;99.90;;;;;;5044848;28;20123;-77
2024/02/21 07:50:01;;;;;;;14.32;7.45;;;10.70;99.90;;;;;;5034806;28;20040;-77
2024/02/21 07:52:26;;;;;;;17.42;7.93;;;10.70;99.90;;;;;;5035314;28;20029;-76
2024/02/21 07:54:52;;;;;;;18.05;9.00;;;10.70;99.90;;;;;;5051087;28;20024;-76
2024/02/21 07:57:18;;;;;;;16.35;7.88;;;10.70;99.90;;;;;;5041422;28;20034;-76
2024/02/21 07:59:43;;;;;;;13.57;8.48;;;10.70;99.90;;;;;;5041938;28;20482;-76
2024/02/21 08:02:09;;;;;;;14.45;8.10;;;10.70;99.90;;;;;;5047946;28;20047;-77
2024/02/21 08:04:35;;;;;;;18.77;8.73;;;10.80;99.90;;;;;;5043498;28;20112;-81
2024/02/21 08:07:04;;;;;;;15.93;8.85;;;10.70;99.90;;;;;;5037964;28;20067;-78
2024/02/21 08:09:30;;;;;;;13.80;8.10;;;10.70;99.90;;;;;;5050738;28;20131;-77
2024/02/21 08:11:56;;;;;;;16.48;8.27;;;10.70;99.90;;;;;;5044225;28;20048;-78
2024/02/21 08:14:22;;;;;;;16.02;8.27;;;10.70;99.90;;;;;;5032960;28;20021;-79
2024/02/21 08:16:48;;;;;;;17.98;8.38;;;10.70;99.90;;;;;;5038641;28;20025;-77
2024/02/21 08:19:14;;;;;;;14.82;8.57;;;10.60;99.90;;;;;;5051392;28;20013;-76
2024/02/21 08:21:39;;;;;;;18.98;7.80;;;10.60;99.90;;;;;;5039386;28;20021;-79
2024/02/21 08:24:05;;;;;;;15.57;8.38;;;10.60;99.90;;;;;;5050784;28;20032;-78
2024/02/21 08:26:31;;;;;;;18.08;8.68;;;10.50;99.90;;;;;;5052195;28;20091;-75
2024/02/21 08:29:00;;;;;;;14.65;8.52;;;10.50;99.90;;;;;;5050207;28;20036;-77
2024/02/21 08:31:33;;;;;;;12.93;8.07;;;10.60;99.90;;;;;;5038880;28;20021;-77
2024/02/21 08:34:02;;;;;;;16.17;8.95;;;10.50;99.90;;;;;;5035381;28;20025;-76
2024/02/21 08:36:32;;;;;;;19.90;9.60;;;10.60;99.90;;;;;;5032206;28;20021;-74
2024/02/21 08:38:58;;;;;;;16.88;10.65;;;10.70;99.90;;;;;;5029704;28;20493;-73
2024/02/21 08:41:27;;;;;;;21.85;11.32;;;10.60;99.90;;;;;;5041733;28;20013;-75
2024/02/21 08:43:54;;;;;;;22.38;10.52;;;10.60;99.90;;;;;;5048050;28;20530;-75
2024/02/21 08:46:20;;;;;;;20.42;11.35;;;10.60;99.90;;;;;;5041353;28;20026;-75
2024/02/21 08:48:46;;;;;;;19.50;10.00;;;10.70;99.90;;;;;;5047698;28;20049;-75
2024/02/21 08:51:13;;;;;;;21.85;10.07;;;10.60;99.90;;;;;;5033282;28;20524;-75
2024/02/21 08:53:39;;;;;;;19.67;10.80;;;10.70;99.90;;;;;;5032007;28;20025;-73
2024/02/21 08:56:05;;;;;;;17.73;10.10;;;10.70;99.90;;;;;;5044826;28;20084;-73
2024/02/21 08:58:31;;;;;;;23.85;10.90;;;10.70;99.90;;;;;;5031972;28;20072;-74
2024/02/21 09:00:56;;;;;;;17.80;9.63;;;10.70;99.90;;;;;;5036785;28;20370;-75
2024/02/21 09:03:23;;;;;;;19.52;9.93;;;10.60;99.90;;;;;;5051967;28;20563;-74
2024/02/21 09:05:49;;;;;;;17.38;8.90;;;10.70;99.90;;;;;;5051020;28;20088;-77
2024/02/21 09:08:14;;;;;;;17.67;9.27;;;10.60;99.90;;;;;;5050458;28;20132;-77
2024/02/21 09:10:40;;;;;;;18.45;9.35;;;10.60;99.90;;;;;;5050891;28;20429;-77
2024/02/21 09:13:07;;;;;;;15.38;8.40;;;10.70;99.90;;;;;;5051935;28;20113;-77
2024/02/21 09:15:33;;;;;;;17.10;9.13;;;10.70;99.90;;;;;;5044258;28;20022;-77
2024/02/21 09:17:59;;;;;;;18.60;7.63;;;10.70;99.90;;;;;;5044727;28;20025;-78
2024/02/21 09:20:25;;;;;;;19.15;7.65;;;10.80;99.90;;;;;;5050069;28;20071;-77
2024/02/21 09:22:51;;;;;;;13.65;7.60;;;10.80;99.90;;;;;;5035919;28;20041;-78
2024/02/21 09:25:17;;;;;;;16.65;8.15;;;10.80;99.90;;;;;;5054893;28;20100;-75
2024/02/21 09:27:44;;;;;;;18.08;7.28;;;10.70;99.90;;;;;;5043131;28;20112;-77
2024/02/21 09:30:11;;;;;;;19.20;7.75;;;10.70;99.90;;;;;;5053915;28;20370;-80
2024/02/21 09:32:37;;;;;;;15.73;7.35;;;10.80;99.90;;;;;;5056259;28;20032;-78
2024/02/21 09:35:03;;;;;;;16.73;7.38;;;10.90;99.90;;;;;;5055076;28;20032;-78
2024/02/21 09:37:32;;;;;;;12.63;6.60;;;10.90;99.90;;;;;;5055017;28;20077;-79
2024/02/21 09:39:58;;;;;;;11.85;6.95;;;10.90;99.90;;;;;;5048899;28;20075;-78
2024/02/21 09:42:36;;;;;;;14.25;7.13;;;11.00;99.90;;;;;;5055490;28;20045;-78
2024/02/21 09:45:07;;;;;;;19.10;7.55;;;10.90;99.90;;;;;;5054384;28;20009;-78
2024/02/21 09:47:54;;;;;;;15.82;7.20;;;11.00;99.90;;;;;;5055028;28;20486;-78
2024/02/21 09:50:22;;;;;;;9.48;6.40;;;11.00;99.90;;;;;;5055168;28;20022;-78
2024/02/21 09:52:49;;;;;;;13.43;6.25;;;11.10;99.90;;;;;;5041666;28;20094;-76
2024/02/21 09:55:16;;;;;;;12.02;6.32;;;10.80;99.90;;;;;;5053399;28;20521;-77
2024/02/21 09:57:43;;;;;;;14.18;6.80;;;11.10;99.90;;;;;;5053397;28;20036;-76
2024/02/21 10:00:09;;;;;;;11.45;5.78;;;11.00;99.90;;;;;;5040574;28;20075;-77
2024/02/21 10:02:36;;;;;;;17.35;6.60;;;11.10;99.90;;;;;;5052794;28;20035;-76
2024/02/21 10:05:04;;;;;;;15.43;5.68;;;11.10;99.90;;;;;;5052468;28;20100;-77
2024/02/21 10:07:30;;;;;;;11.10;5.05;;;11.00;99.90;;;;;;5054837;28;20426;-77
2024/02/21 10:10:05;;;;;;;9.23;5.22;;;11.10;99.90;;;;;;5053159;28;20021;-77
2024/02/21 10:12:31;;;;;;;14.02;5.60;;;11.20;99.90;;;;;;5041428;28;20044;-77
2024/02/21 10:15:04;;;;;;;14.60;5.72;;;11.30;99.90;;;;;;5047124;28;20025;-77
2024/02/21 10:17:30;;;;;;;;;;;11.30;99.90;;;;;;5053581;28;20027;-77
2024/02/21 10:20:06;;;;;;;12.38;5.82;;;11.30;99.90;;;;;;5054523;28;19905;-77
2024/02/21 10:22:35;;;;;;;13.40;5.70;;;11.40;99.90;;;;;;5051983;28;20025;-78
2024/02/21 10:25:11;;;;;;;14.68;6.18;;;11.50;99.90;;;;;;5054171;28;20032;-76
2024/02/21 10:27:37;;;;;;;10.93;5.80;;;11.50;99.90;;;;;;5049702;28;20493;-77
2024/02/21 10:30:08;;;;;;;12.10;6.03;;;11.40;99.90;;;;;;5053198;28;20474;-77
2024/02/21 10:32:34;;;;;;;11.43;5.68;;;11.50;99.90;;;;;;5054391;28;20028;-77
2024/02/21 10:35:07;;;;;;;13.40;5.68;;;11.50;99.90;;;;;;5045314;28;20031;-76
2024/02/21 10:37:33;;;;;;;14.23;5.60;;;11.60;99.90;;;;;;5053747;28;20021;-78
2024/02/21 10:39:58;;;;;;;11.80;5.10;;;11.60;99.90;;;;;;5039763;28;20052;-77
2024/02/21 10:42:32;;;;;;;11.85;5.18;;;11.70;99.90;;;;;;5020444;28;20498;-75
2024/02/21 10:45:04;;;;;;;15.43;5.55;;;11.70;99.90;;;;;;5035105;28;20029;-77
2024/02/21 10:47:31;;;;;;;13.65;6.07;;;11.80;99.90;;;;;;5063358;28;20021;-79
2024/02/21 10:50:04;;;;;;;10.77;5.18;;;11.60;99.90;;;;;;5062608;28;20020;-80
2024/02/21 10:53:00;;;;;;;13.32;5.78;;;11.70;99.90;;;;;;5056033;28;20005;-78
2024/02/21 10:55:36;;;;;;;12.85;5.35;;;11.80;99.90;;;;;;5054198;28;20028;-77
2024/02/21 10:58:03;;;;;;;10.73;5.57;;;11.80;99.90;;;;;;5059702;28;20060;-75
2024/02/21 11:00:30;;;;;;;12.18;5.50;;;11.80;99.90;;;;;;5055784;28;20017;-77
2024/02/21 11:02:57;;;;;;;11.43;6.25;;;11.80;99.90;;;;;;5054847;28;20033;-78
2024/02/21 11:05:24;;;;;;;14.95;5.95;;;11.90;99.90;;;;;;5056811;28;20044;-78
2024/02/21 11:07:51;;;;;;;10.77;5.70;;;11.90;99.90;;;;;;5057992;28;20009;-76
2024/02/21 11:10:25;;;;;;;11.80;5.15;;;12.00;99.90;;;;;;5057988;28;20527;-76
2024/02/21 11:13:08;;;;;;;12.00;4.97;;;12.10;99.90;;;;;;5062585;28;20025;-76
2024/02/21 11:15:33;;;;;;;9.35;5.22;;;12.10;99.90;;;;;;5054827;28;20032;-76
2024/02/21 11:17:59;;;;;;;14.65;5.30;;;12.00;99.90;;;;;;5053242;28;20024;-82
2024/02/21 11:20:35;;;;;;;14.18;5.60;;;11.90;99.90;;;;;;5059197;28;20086;-78
2024/02/21 11:23:01;;;;;;;12.80;5.57;;;12.00;99.90;;;;;;5055754;28;20028;-77
2024/02/21 11:25:28;;;;;;;10.15;5.38;;;12.10;99.90;;;;;;5058604;28;20202;-78
2024/02/21 11:28:04;;;;;;;14.50;5.97;;;12.20;99.90;;;;;;5058444;28;20059;-79
2024/02/21 11:30:31;;;;;;;14.90;5.15;;;12.20;99.90;;;;;;5054809;28;20024;-76
2024/02/21 11:33:01;;;;;;;9.98;5.55;;;12.30;99.90;;;;;;5060663;28;20028;-75
2024/02/21 11:35:34;;;;;;;9.52;4.47;;;12.50;99.90;;;;;;5052945;28;20106;-77
2024/02/21 11:38:16;;;;;;;12.32;4.82;;;12.50;99.90;;;;;;5051155;28;20110;-76
2024/02/21 11:40:45;;;;;;;14.65;5.10;;;12.70;99.90;;;;;;5056996;28;20032;-77
2024/02/21 11:43:10;;;;;;;10.90;5.10;;;12.60;99.90;;;;;;5054307;28;20037;-78
2024/02/21 11:45:36;;;;;;;12.15;4.72;;;12.60;99.90;;;;;;5051080;28;20017;-75
2024/02/21 11:48:05;;;;;;;10.27;6.00;;;12.60;99.90;;;;;;5060733;28;20103;-75
2024/02/21 11:50:31;;;;;;;10.50;4.93;;;12.50;99.90;;;;;;5057370;28;20027;-75
2024/02/21 11:52:57;;;;;;;10.50;4.80;;;12.60;99.90;;;;;;5058969;28;20021;-78
2024/02/21 11:55:23;;;;;;;13.30;5.07;;;12.60;99.90;;;;;;5060472;28;20028;-72
2024/02/21 11:57:49;;;;;;;9.52;4.82;;;12.70;99.90;;;;;;5055605;28;20051;-78
2024/02/21 12:00:24;;;;;;;12.43;5.90;;;12.70;99.90;;;;;;5056689;28;20024;-78
2024/02/21 12:02:50;;;;;;;12.98;5.03;;;12.90;99.90;;;;;;5053874;28;20033;-77
2024/02/21 12:05:18;;;;;;;10.80;4.85;;;12.90;99.90;;;;;;5057405;28;20040;-78
2024/02/21 12:07:45;;;;;;;10.23;4.80;;;13.00;99.90;;;;;;5058731;28;20040;-79
2024/02/21 12:10:11;;;;;;;11.55;4.85;;;13.10;99.90;;;;;;5061428;28;20416;-79
2024/02/21 12:12:40;;;;;;;10.93;5.07;;;13.20;99.90;;;;;;5059760;28;20095;-75
2024/02/21 12:15:08;;;;;;;10.43;4.50;;;13.30;99.90;;;;;;5061275;28;20103;-78
2024/02/21 12:17:35;;;;;;;10.95;4.32;;;13.20;99.90;;;;;;5055231;28;20031;-77
2024/02/21 12:20:03;;;;;;;12.30;4.60;;;13.20;99.90;;;;;;5055681;28;20060;-80
2024/02/21 12:22:32;;;;;;;10.50;4.63;;;13.20;99.90;;;;;;5054272;28;20028;-79
2024/02/21 12:24:58;;;;;;;10.90;4.68;;;13.20;99.90;;;;;;5055481;28;20489;-79
2024/02/21 12:27:25;;;;;;;11.75;4.57;;;13.20;99.90;;;;;;5059317;28;20019;-80
2024/02/21 12:29:50;;;;;;;10.27;4.30;;;13.30;99.90;;;;;;5056041;28;20546;-81
2024/02/21 12:32:16;;;;;;;11.95;4.13;;;13.40;99.90;;;;;;5055426;28;20449;-74